Hachioji, Japan
Current Conditions -  °F | °C
As of 2:12 AM on Thursday 27 Nov 2014 (Local Time) from RJTY Reporting Station
Broken Clouds Broken Clouds  
Wind Chill: 50°   Ceiling: 5000
Heat Index: 50°   Visibility: 10mi
Dew Point: 50°   Wind: 0mph
Humidity: 100%   Direction: NA
Pressure: 30.01"   Gusts: NA
Location:  35.66°N, 139.33°E
Report Text: RJTY 261712Z AUTO 00000KT 10SM BKN050 BKN060 10/10 A3001 RMK AO2 RAE1709DZB1709E1712
Loading
Personal Weather Stations






























Interactive Weather Map New forecast layout! Learn more

10-Day Weather Forecast

Advertisements
Track Severe Weather on mobile